Accueil
METAR-TAF:

METAR-TAF

Aéroports :

Toussus-le-Noble, France

Aéroport de Toussus-le-Noble

latitude: 48-46N, longitude: 002-06E, altitude: 164 m

Observation

Le bulletin a été fait il y a 12 minutes, à 18:30 UTC
Vent 2 kt de est
Température 17°C
Humidité 88%
Pression 1016 hPa
Visibilité 10 km ou plus
pas de nuages en-dessous de 1500 mètres et pas de cumulonimbus.

METAR: LFPN 171830Z AUTO 10002KT CAVOK 17/15 Q1016 NOSIG

Heure: 20:42 (18:42 UTC)

Prévision

Le bulletin a été fait il y a 1 heure et 42 minutes, à 17:00 UTC
Prévision valable du 17 à 18 UTC au 18 à 03 UTC
Vent 5 kt de est
Visibilité 10 km ou plus
pas de nuages en-dessous de 1500 mètres et pas de cumulonimbus.
Probabilité 30% :
Temporairement
du 17 à 23 UTC au 18 à 03 UTC
Visibilité: 4000 m
Brouillard mince

TAF: LFPN 171700Z 1718/1803 10005KT CAVOK PROB30 TEMPO 1723/1803 4000 MIFG

Observations et prévisions météorologiques de plus de 4000 aéroports (messages METAR et TAF).

Les stations disponibles sont représentées par des disques jaunes et rouges sur la carte.

Passer la souris dessus pour voir le nom de la station.

Cliquer dessus pour voir les observations et prévisions météorologiques.

Pour changer de carte: cliquez sur les boutons verts avec une croix noire pour zoomer, sur le bouton vert avec un tiret pour effectuer un zoom arrière, ou sur les flèches vertes pour les cartes adjacentes.


METAR-TAF: